Time;durP1;ratioP1;P1;durP2;ratioP2;P2;SDS_P1;SDS_P2;PMS_P1;PMS_P2;Temp;Humidity;BMP_temperature;BMP_pressure;BME280_temperature;BME280_humidity;BME280_pressure;Samples;Min_cycle;Max_cycle;Signal;HPM_P1;HPM_P2
2023/12/15 00:00:18;;;;;;;23.77;11.97;;;9.60;99.90;;;;;;7285927;19;20299;-79
2023/12/15 00:02:45;;;;;;;22.90;11.50;;;9.60;99.90;;;;;;7284004;19;20690;-79
2023/12/15 00:05:11;;;;;;;21.20;11.27;;;9.60;99.90;;;;;;7285193;19;20253;-79
2023/12/15 00:07:38;;;;;;;23.13;10.83;;;9.60;99.90;;;;;;7283874;19;20196;-79
2023/12/15 00:10:04;;;;;;;26.10;11.47;;;9.70;99.90;;;;;;7283243;19;20190;-79
2023/12/15 00:12:29;;;;;;;18.57;11.13;;;9.70;99.90;;;;;;7285882;19;20186;-79
2023/12/15 00:14:55;;;;;;;23.23;10.90;;;9.70;99.90;;;;;;7288542;19;20192;-77
2023/12/15 00:17:21;;;;;;;19.37;10.37;;;9.70;99.90;;;;;;7303427;19;20219;-79
2023/12/15 00:19:47;;;;;;;20.60;10.17;;;9.70;99.90;;;;;;7282093;19;20550;-79
2023/12/15 00:22:12;;;;;;;20.57;10.60;;;9.70;99.90;;;;;;7282535;19;20202;-79
2023/12/15 00:24:38;;;;;;;20.40;10.80;;;9.80;99.90;;;;;;7284107;19;20230;-79
2023/12/15 00:27:04;;;;;;;23.53;10.97;;;9.70;99.90;;;;;;7282925;19;20244;-79
2023/12/15 00:29:29;;;;;;;19.17;9.97;;;9.70;99.90;;;;;;7282341;19;20662;-78
2023/12/15 00:31:55;;;;;;;24.23;11.20;;;9.70;99.90;;;;;;7290387;19;20668;-79
2023/12/15 00:34:21;;;;;;;19.23;9.93;;;9.60;99.90;;;;;;7305377;19;20190;-79
2023/12/15 00:36:47;;;;;;;21.00;10.87;;;9.60;99.90;;;;;;7283920;19;20190;-79
2023/12/15 00:39:12;;;;;;;27.87;10.10;;;9.60;99.90;;;;;;7282527;19;20307;-79
2023/12/15 00:41:38;;;;;;;23.47;11.07;;;9.50;99.90;;;;;;7281637;19;20191;-80
2023/12/15 00:44:04;;;;;;;22.43;11.33;;;9.60;99.90;;;;;;7281212;19;20185;-79
2023/12/15 00:46:30;;;;;;;23.10;10.40;;;9.70;99.90;;;;;;7280496;19;20197;-79
2023/12/15 00:48:55;;;;;;;23.33;10.70;;;9.80;99.90;;;;;;7287655;19;20525;-78
2023/12/15 00:51:21;;;;;;;18.90;10.60;;;9.90;99.90;;;;;;7307108;19;20189;-79
2023/12/15 00:53:47;;;;;;;20.70;10.93;;;9.90;99.90;;;;;;7281927;19;20543;-79
2023/12/15 00:56:13;;;;;;;24.67;11.27;;;10.00;99.90;;;;;;7281077;19;20202;-79
2023/12/15 00:58:38;;;;;;;24.20;12.60;;;9.90;99.90;;;;;;7283623;19;20208;-79
2023/12/15 01:01:05;;;;;;;26.20;11.90;;;9.90;99.90;;;;;;7281711;19;20632;-79
2023/12/15 01:03:32;;;;;;;27.13;12.60;;;9.90;99.90;;;;;;7282447;19;20186;-79
2023/12/15 01:05:57;;;;;;;26.83;12.23;;;10.00;99.90;;;;;;7283350;19;20207;-79
2023/12/15 01:08:24;;;;;;;24.17;13.10;;;9.90;99.90;;;;;;7303160;19;20202;-79
2023/12/15 01:10:50;;;;;;;24.07;12.97;;;10.00;99.90;;;;;;7283542;19;20203;-79
2023/12/15 01:13:16;;;;;;;22.63;12.40;;;10.00;99.90;;;;;;7281581;19;20195;-79
2023/12/15 01:15:42;;;;;;;24.60;12.47;;;10.00;99.90;;;;;;7281463;19;20199;-80
2023/12/15 01:18:07;;;;;;;28.20;14.00;;;10.10;99.90;;;;;;7280508;19;20196;-79
2023/12/15 01:20:33;;;;;;;29.50;14.43;;;10.10;99.90;;;;;;7282940;19;20550;-79
2023/12/15 01:22:59;;;;;;;26.70;14.07;;;10.10;99.90;;;;;;7280317;19;20324;-79
2023/12/15 01:25:25;;;;;;;35.43;16.80;;;10.10;99.90;;;;;;7296763;19;20186;-78
2023/12/15 01:27:50;;;;;;;41.70;17.40;;;9.90;99.90;;;;;;7297259;19;20616;-79
2023/12/15 01:30:16;;;;;;;32.73;16.83;;;9.90;99.90;;;;;;7281378;19;20650;-79
2023/12/15 01:32:42;;;;;;;32.73;17.97;;;9.70;99.90;;;;;;7281372;19;20529;-79
2023/12/15 01:35:08;;;;;;;29.67;16.27;;;9.80;99.90;;;;;;7279556;19;20192;-80
2023/12/15 01:37:34;;;;;;;35.03;17.53;;;9.80;99.90;;;;;;7282194;19;20567;-79
2023/12/15 01:40:00;;;;;;;33.97;17.27;;;9.80;99.90;;;;;;7287965;19;20191;-79
2023/12/15 01:42:26;;;;;;;36.20;18.83;;;9.90;99.90;;;;;;7294811;19;20187;-79
2023/12/15 01:44:53;;;;;;;34.30;17.23;;;9.90;99.90;;;;;;7310459;19;20284;-80
2023/12/15 01:47:19;;;;;;;38.30;19.43;;;9.90;99.90;;;;;;7286809;19;20787;-79
2023/12/15 01:49:46;;;;;;;36.77;18.20;;;9.90;99.90;;;;;;7288536;19;20187;-79
2023/12/15 01:52:12;;;;;;;34.63;18.83;;;9.90;99.90;;;;;;7287957;19;20188;-79
2023/12/15 01:54:38;;;;;;;37.30;19.67;;;9.90;99.90;;;;;;7287288;19;20201;-79
2023/12/15 01:57:04;;;;;;;38.23;18.53;;;10.00;99.90;;;;;;7285182;19;20252;-79
2023/12/15 01:59:49;;;;;;;34.30;18.60;;;10.00;99.90;;;;;;7288410;19;20251;-79
2023/12/15 02:02:15;;;;;;;42.43;19.57;;;10.00;99.90;;;;;;7286487;19;20233;-79
2023/12/15 02:04:41;;;;;;;34.17;18.63;;;10.00;99.90;;;;;;7287732;19;20199;-79
2023/12/15 02:07:07;;;;;;;40.77;20.13;;;9.80;99.90;;;;;;7283691;19;20203;-80
2023/12/15 02:09:33;;;;;;;41.10;21.13;;;9.80;99.90;;;;;;7283935;19;20216;-79
2023/12/15 02:11:58;;;;;;;39.73;19.70;;;9.80;99.90;;;;;;7287261;19;20181;-78
2023/12/15 02:14:24;;;;;;;33.60;20.23;;;9.70;99.90;;;;;;7307922;19;20194;-79
2023/12/15 02:16:50;;;;;;;40.23;21.93;;;9.80;99.90;;;;;;7285608;19;20189;-79
2023/12/15 02:19:16;;;;;;;40.47;22.43;;;9.70;99.90;;;;;;7286826;19;20196;-80
2023/12/15 02:21:42;;;;;;;37.13;20.60;;;9.80;99.90;;;;;;7286376;19;20297;-79
2023/12/15 02:24:08;;;;;;;43.80;21.47;;;9.80;99.90;;;;;;7284392;19;20217;-79
2023/12/15 02:26:34;;;;;;;43.70;21.70;;;9.70;99.90;;;;;;7285324;19;20195;-79
2023/12/15 02:28:59;;;;;;;41.33;22.57;;;9.70;99.90;;;;;;7281950;19;20217;-79
2023/12/15 02:31:25;;;;;;;45.53;22.60;;;9.80;99.90;;;;;;7297443;19;20187;-78
2023/12/15 02:33:53;;;;;;;42.63;21.87;;;9.90;99.90;;;;;;7302028;19;20215;-79
2023/12/15 02:36:20;;;;;;;43.70;23.70;;;9.80;99.90;;;;;;7285432;19;20197;-79
2023/12/15 02:38:45;;;;;;;44.37;22.93;;;9.70;99.90;;;;;;7285293;19;20205;-79
2023/12/15 02:41:11;;;;;;;45.70;22.43;;;9.70;99.90;;;;;;7284104;19;20191;-79
2023/12/15 02:43:38;;;;;;;47.17;23.57;;;9.70;99.90;;;;;;7284707;19;20298;-79
2023/12/15 02:46:04;;;;;;;46.47;22.10;;;9.80;99.90;;;;;;7282872;19;20199;-79
2023/12/15 02:48:30;;;;;;;47.63;23.10;;;9.90;99.90;;;;;;7283879;19;20219;-80
2023/12/15 02:50:56;;;;;;;46.20;24.20;;;9.90;99.90;;;;;;7290082;19;20205;-78
2023/12/15 02:53:22;;;;;;;42.60;22.67;;;9.90;99.90;;;;;;7306560;19;20190;-79
2023/12/15 02:55:48;;;;;;;46.60;23.73;;;10.00;99.90;;;;;;7284795;19;20206;-80
2023/12/15 02:58:13;;;;;;;47.13;23.67;;;10.00;99.90;;;;;;7286611;19;20659;-79
2023/12/15 03:00:39;;;;;;;51.93;24.87;;;10.00;99.90;;;;;;7285196;19;20650;-79
2023/12/15 03:03:05;;;;;;;43.07;22.67;;;10.00;99.90;;;;;;7285770;19;20200;-79
2023/12/15 03:05:30;;;;;;;46.37;23.40;;;9.90;99.90;;;;;;7284731;19;20195;-78
2023/12/15 03:07:56;;;;;;;50.97;23.73;;;9.90;99.90;;;;;;7287186;19;20259;-79
2023/12/15 03:10:22;;;;;;;43.47;23.13;;;9.90;99.90;;;;;;7304569;19;20271;-79
2023/12/15 03:12:48;;;;;;;48.30;22.90;;;10.00;99.90;;;;;;7286207;19;20670;-80
2023/12/15 03:15:14;;;;;;;45.60;23.77;;;10.00;99.90;;;;;;7285446;19;20258;-79
2023/12/15 03:17:40;;;;;;;55.57;25.00;;;10.00;99.90;;;;;;7285169;19;20196;-79
2023/12/15 03:20:07;;;;;;;46.77;23.23;;;10.00;99.90;;;;;;7285368;19;20195;-80
2023/12/15 03:22:33;;;;;;;49.93;24.97;;;10.00;99.90;;;;;;7283987;19;20277;-79
2023/12/15 03:24:58;;;;;;;46.10;23.53;;;10.10;99.90;;;;;;7284718;19;20221;-78
2023/12/15 03:27:24;;;;;;;46.33;23.40;;;10.00;99.90;;;;;;7304512;19;20191;-79
2023/12/15 03:29:50;;;;;;;56.10;25.00;;;10.00;99.90;;;;;;7284002;19;20235;-79
2023/12/15 03:32:16;;;;;;;50.47;24.47;;;10.10;99.90;;;;;;7282047;19;20982;-79
2023/12/15 03:34:42;;;;;;;56.77;25.17;;;10.20;99.90;;;;;;7281728;19;20541;-79
2023/12/15 03:37:08;;;;;;;51.67;24.87;;;10.20;99.90;;;;;;7281783;19;20262;-79
2023/12/15 03:39:35;;;;;;;54.20;26.27;;;10.20;99.90;;;;;;7281341;19;20184;-78
2023/12/15 03:42:06;;;;;;;49.93;24.70;;;10.20;99.90;;;;;;7282710;19;20204;-78
2023/12/15 03:44:39;;;;;;;49.03;24.53;;;10.20;99.90;;;;;;7282589;19;20217;-79
2023/12/15 03:47:06;;;;;;;55.37;25.87;;;10.30;99.90;;;;;;7281444;19;20272;-78
2023/12/15 03:49:33;;;;;;;54.10;25.43;;;10.30;99.90;;;;;;7283318;19;20241;-78
2023/12/15 03:51:59;;;;;;;55.70;25.70;;;10.40;99.90;;;;;;7282248;19;20194;-78
2023/12/15 03:54:24;;;;;;;54.47;25.43;;;10.40;99.90;;;;;;7303260;19;20207;-79
2023/12/15 03:56:57;;;;;;;54.07;25.43;;;10.40;99.90;;;;;;7284734;19;20188;-79
2023/12/15 03:59:24;;;;;;;52.53;24.63;;;10.40;99.90;;;;;;7282934;19;20294;-78
2023/12/15 04:01:50;;;;;;;59.07;25.53;;;10.40;99.90;;;;;;7281276;19;20182;-78
2023/12/15 04:04:17;;;;;;;54.97;25.20;;;10.40;99.90;;;;;;7282651;19;20221;-78
2023/12/15 04:06:43;;;;;;;54.97;24.93;;;10.40;99.90;;;;;;7281600;19;20204;-79
2023/12/15 04:09:11;;;;;;;61.00;26.07;;;10.40;99.90;;;;;;7282579;19;20193;-80
2023/12/15 04:11:37;;;;;;;58.37;26.53;;;10.50;99.90;;;;;;7280578;19;20195;-78
2023/12/15 04:14:04;;;;;;;65.60;26.80;;;10.50;99.90;;;;;;7281449;19;20195;-79
2023/12/15 04:16:30;;;;;;;58.63;26.00;;;10.40;99.90;;;;;;7280275;19;20210;-80
2023/12/15 04:18:57;;;;;;;65.03;26.70;;;10.40;99.90;;;;;;7290171;19;20595;-80
2023/12/15 04:21:23;;;;;;;64.43;27.30;;;10.50;99.90;;;;;;7303787;19;20185;-79
2023/12/15 04:23:50;;;;;;;58.53;26.30;;;10.50;99.90;;;;;;7282413;19;20203;-79
2023/12/15 04:26:15;;;;;;;61.93;26.13;;;10.40;99.90;;;;;;7282990;19;20775;-78
2023/12/15 04:28:41;;;;;;;63.03;26.67;;;10.40;99.90;;;;;;7284247;19;20205;-79
2023/12/15 04:31:12;;;;;;;62.43;27.50;;;10.40;99.90;;;;;;7283305;19;20277;-78
2023/12/15 04:33:38;;;;;;;66.47;27.33;;;10.40;99.90;;;;;;7282575;19;20192;-79
2023/12/15 04:36:04;;;;;;;60.50;27.23;;;10.40;99.90;;;;;;7281871;19;20191;-78
2023/12/15 04:38:30;;;;;;;63.23;27.17;;;10.40;99.90;;;;;;7283457;19;20615;-79
2023/12/15 04:40:56;;;;;;;62.13;26.43;;;10.50;99.90;;;;;;7288143;19;20189;-78
2023/12/15 04:43:22;;;;;;;69.03;27.60;;;10.50;99.90;;;;;;7304434;19;20195;-79
2023/12/15 04:45:47;;;;;;;62.90;27.03;;;10.50;99.90;;;;;;7282330;19;20718;-79
2023/12/15 04:48:13;;;;;;;64.17;27.47;;;10.60;99.90;;;;;;7281731;19;20184;-79
2023/12/15 04:50:39;;;;;;;68.27;28.03;;;10.70;99.90;;;;;;7283921;19;20200;-79
2023/12/15 04:53:06;;;;;;;69.00;28.37;;;10.70;99.90;;;;;;7282305;19;20216;-79
2023/12/15 04:55:32;;;;;;;68.47;27.80;;;10.80;99.90;;;;;;7278982;19;20187;-80
2023/12/15 04:57:58;;;;;;;63.13;28.67;;;10.70;99.90;;;;;;7280886;19;20196;-79
2023/12/15 05:00:24;;;;;;;64.80;28.50;;;10.50;99.90;;;;;;7304831;19;20602;-80
2023/12/15 05:02:49;;;;;;;67.27;27.90;;;10.50;99.90;;;;;;7280491;19;20188;-79
2023/12/15 05:05:16;;;;;;;57.53;27.70;;;10.40;99.90;;;;;;7284294;19;20212;-80
2023/12/15 05:07:42;;;;;;;59.53;26.77;;;10.50;99.90;;;;;;7282769;19;20200;-79
2023/12/15 05:10:08;;;;;;;68.03;27.73;;;10.50;99.90;;;;;;7281466;19;20192;-79
2023/12/15 05:12:34;;;;;;;68.37;27.80;;;10.60;99.90;;;;;;7282243;19;20256;-79
2023/12/15 05:15:01;;;;;;;67.90;28.57;;;10.60;99.90;;;;;;7288431;19;20198;-79
2023/12/15 05:17:27;;;;;;;61.93;27.70;;;10.70;99.90;;;;;;7288416;19;20710;-77
2023/12/15 05:19:53;;;;;;;62.63;27.77;;;10.60;99.90;;;;;;7311448;19;20204;-79
2023/12/15 05:22:18;;;;;;;62.03;27.27;;;10.60;99.90;;;;;;7288829;19;20181;-80
2023/12/15 05:24:44;;;;;;;62.83;26.67;;;10.50;99.90;;;;;;7289337;19;20196;-80
2023/12/15 05:27:10;;;;;;;62.53;27.60;;;10.50;99.90;;;;;;7287945;19;20263;-78
2023/12/15 05:29:43;;;;;;;65.23;27.63;;;10.60;99.90;;;;;;7285466;19;20312;-78
2023/12/15 05:32:09;;;;;;;65.53;28.27;;;10.60;99.90;;;;;;7288785;19;20188;-79
2023/12/15 05:34:35;;;;;;;67.50;29.23;;;10.60;99.90;;;;;;7287714;19;20199;-78
2023/12/15 05:37:00;;;;;;;71.13;29.63;;;10.60;99.90;;;;;;7287388;19;20189;-78
2023/12/15 05:39:26;;;;;;;64.87;28.40;;;10.50;99.90;;;;;;7294515;19;20213;-78
2023/12/15 05:41:52;;;;;;;63.63;26.83;;;10.50;99.90;;;;;;7309850;19;20823;-79
2023/12/15 05:44:17;;;;;;;66.73;29.23;;;10.50;99.90;;;;;;7288157;19;20187;-79
2023/12/15 05:46:44;;;;;;;67.13;28.83;;;10.50;99.90;;;;;;7287943;19;20219;-79
2023/12/15 05:49:10;;;;;;;70.30;29.83;;;10.50;99.90;;;;;;7287210;19;20194;-78
2023/12/15 05:51:37;;;;;;;67.13;29.20;;;10.60;99.90;;;;;;7287015;19;20198;-78
2023/12/15 05:54:03;;;;;;;78.03;29.93;;;10.50;99.90;;;;;;7286284;19;20269;-79
2023/12/15 05:56:29;;;;;;;65.67;28.77;;;10.50;99.90;;;;;;7285404;19;20195;-77
2023/12/15 05:58:58;;;;;;;76.53;29.40;;;10.40;99.90;;;;;;7306739;19;20187;-75
2023/12/15 06:01:24;;;;;;;75.67;28.60;;;10.40;99.90;;;;;;7309079;19;20230;-79
2023/12/15 06:03:49;;;;;;;68.03;30.30;;;10.40;99.90;;;;;;7286219;19;20195;-77
2023/12/15 06:06:15;;;;;;;73.23;29.80;;;10.50;99.90;;;;;;7286035;19;20212;-79
2023/12/15 06:08:41;;;;;;;68.67;29.67;;;10.40;99.90;;;;;;7285924;19;20750;-79
2023/12/15 06:11:06;;;;;;;72.57;30.00;;;10.40;99.90;;;;;;7284769;19;20191;-79
2023/12/15 06:13:32;;;;;;;68.33;28.83;;;10.40;99.90;;;;;;7287025;19;20184;-79
2023/12/15 06:15:58;;;;;;;68.77;29.60;;;10.30;99.90;;;;;;7286476;19;20184;-79
2023/12/15 06:18:23;;;;;;;68.97;29.07;;;10.30;99.90;;;;;;7308069;19;20182;-79
2023/12/15 06:20:49;;;;;;;78.03;29.83;;;10.40;99.90;;;;;;7282877;19;20197;-79
2023/12/15 06:23:15;;;;;;;73.87;30.13;;;10.30;99.90;;;;;;7282608;19;20217;-79
2023/12/15 06:25:41;;;;;;;78.63;31.77;;;10.30;99.90;;;;;;7286532;19;20192;-80
2023/12/15 06:28:10;;;;;;;74.77;30.87;;;10.10;99.90;;;;;;7286208;19;20191;-79
2023/12/15 06:30:38;;;;;;;71.27;31.03;;;10.00;99.90;;;;;;7287568;19;20325;-80
2023/12/15 06:33:07;;;;;;;70.90;31.07;;;10.00;99.90;;;;;;7287193;19;20195;-79
2023/12/15 06:35:33;;;;;;;76.10;30.63;;;9.90;99.90;;;;;;7285560;19;20182;-79
2023/12/15 06:38:00;;;;;;;75.57;31.47;;;9.80;99.90;;;;;;7287394;19;20189;-79
2023/12/15 06:40:25;;;;;;;72.27;31.57;;;9.90;99.90;;;;;;7301896;19;20193;-78
2023/12/15 06:42:51;;;;;;;77.03;29.40;;;9.90;99.90;;;;;;7300211;19;20191;-79
2023/12/15 06:45:17;;;;;;;77.57;32.17;;;9.90;99.90;;;;;;7284820;19;20678;-80
2023/12/15 06:47:43;;;;;;;72.03;31.73;;;10.00;99.90;;;;;;7283716;19;20191;-80
2023/12/15 06:50:09;;;;;;;77.77;31.57;;;9.80;99.90;;;;;;7284071;19;20928;-80
2023/12/15 06:52:35;;;;;;;74.57;31.07;;;9.70;99.90;;;;;;7286606;19;20185;-80
2023/12/15 06:55:02;;;;;;;69.67;29.47;;;9.70;99.90;;;;;;7286075;19;20190;-80
2023/12/15 06:57:28;;;;;;;72.13;30.70;;;9.70;99.90;;;;;;7285655;19;20195;-79
2023/12/15 06:59:54;;;;;;;68.90;29.97;;;9.80;99.90;;;;;;7309220;19;20199;-80
2023/12/15 07:02:20;;;;;;;71.73;29.90;;;9.70;99.90;;;;;;7285539;19;20190;-80
2023/12/15 07:04:46;;;;;;;63.47;29.60;;;9.70;99.90;;;;;;7286632;19;20228;-80
2023/12/15 07:07:12;;;;;;;75.33;30.90;;;9.60;99.90;;;;;;7287208;19;20186;-80
2023/12/15 07:09:37;;;;;;;71.87;30.10;;;9.70;99.90;;;;;;7284755;19;20195;-80
2023/12/15 07:12:03;;;;;;;74.97;29.90;;;9.70;99.90;;;;;;7285521;19;20188;-79
2023/12/15 07:14:29;;;;;;;75.93;31.93;;;9.70;99.90;;;;;;7285833;19;20191;-80
2023/12/15 07:16:55;;;;;;;78.43;31.77;;;9.80;99.90;;;;;;7305253;19;20195;-76
2023/12/15 07:19:21;;;;;;;67.37;31.13;;;9.80;99.90;;;;;;7295580;19;20190;-80
2023/12/15 07:21:47;;;;;;;73.33;31.13;;;9.80;99.90;;;;;;7285377;19;20198;-80
2023/12/15 07:24:13;;;;;;;75.77;30.73;;;9.80;99.90;;;;;;7284540;19;20197;-80
2023/12/15 07:26:39;;;;;;;82.30;31.30;;;9.80;99.90;;;;;;7285591;19;20197;-80
2023/12/15 07:29:05;;;;;;;65.03;28.87;;;9.80;99.90;;;;;;7283655;19;20198;-80
2023/12/15 07:31:31;;;;;;;67.43;30.00;;;9.80;99.90;;;;;;7284472;19;20193;-80
2023/12/15 07:33:56;;;;;;;72.27;28.53;;;9.80;99.90;;;;;;7288171;19;20221;-79
2023/12/15 07:36:22;;;;;;;68.43;29.17;;;9.80;99.90;;;;;;7303434;19;20198;-80
2023/12/15 07:38:48;;;;;;;64.17;27.73;;;9.90;99.90;;;;;;7286563;19;20189;-80
2023/12/15 07:41:14;;;;;;;64.27;28.97;;;10.00;99.90;;;;;;7283872;19;20557;-80
2023/12/15 07:43:40;;;;;;;72.50;28.93;;;10.00;99.90;;;;;;7285476;19;20195;-80
2023/12/15 07:46:16;;;;;;;65.60;29.27;;;10.00;99.90;;;;;;7283240;19;20187;-79
2023/12/15 07:48:43;;;;;;;72.90;30.30;;;10.10;99.90;;;;;;7284887;19;20191;-80
2023/12/15 07:51:19;;;;;;;64.47;27.10;;;10.10;99.90;;;;;;7283296;19;20199;-80
2023/12/15 07:53:48;;;;;;;68.23;28.23;;;10.20;99.90;;;;;;7284585;19;20621;-80
2023/12/15 07:56:25;;;;;;;58.90;26.87;;;10.20;99.90;;;;;;7285093;19;20254;-80
2023/12/15 07:58:53;;;;;;;59.80;27.50;;;10.20;99.90;;;;;;7285399;19;20179;-80
2023/12/15 08:01:21;;;;;;;58.77;26.57;;;10.20;99.90;;;;;;7283423;19;20197;-80
2023/12/15 08:03:47;;;;;;;54.00;25.40;;;10.20;99.90;;;;;;7280245;19;20662;-80
2023/12/15 08:06:15;;;;;;;59.60;25.70;;;10.10;99.90;;;;;;7280854;19;20722;-80
2023/12/15 08:08:41;;;;;;;48.80;24.67;;;10.20;99.90;;;;;;7280923;19;20266;-80
2023/12/15 08:11:07;;;;;;;51.80;24.13;;;10.20;99.90;;;;;;7280786;19;20202;-80
2023/12/15 08:13:33;;;;;;;54.27;24.33;;;10.30;99.90;;;;;;7283487;19;20186;-81
2023/12/15 08:15:58;;;;;;;49.00;22.77;;;10.30;99.90;;;;;;7282681;19;20189;-80
2023/12/15 08:18:24;;;;;;;43.40;21.93;;;10.40;99.90;;;;;;7305052;19;20243;-81
2023/12/15 08:20:50;;;;;;;44.37;22.13;;;10.40;99.90;;;;;;7283324;19;20224;-81
2023/12/15 08:23:16;;;;;;;48.47;21.13;;;10.40;99.90;;;;;;7283933;19;20204;-81
2023/12/15 08:25:42;;;;;;;42.57;20.93;;;10.50;99.90;;;;;;7284744;19;20190;-81
2023/12/15 08:28:11;;;;;;;46.10;22.57;;;10.50;99.90;;;;;;7283008;19;20197;-81
2023/12/15 08:30:38;;;;;;;44.03;20.47;;;10.50;99.90;;;;;;7284388;19;20264;-81
2023/12/15 08:33:04;;;;;;;47.60;21.07;;;10.50;99.90;;;;;;7283255;19;20685;-81
2023/12/15 08:35:29;;;;;;;41.73;20.70;;;10.50;99.90;;;;;;7282293;19;20185;-80
2023/12/15 08:37:56;;;;;;;37.40;19.87;;;10.60;99.90;;;;;;7305266;19;20193;-77
2023/12/15 08:40:23;;;;;;;44.47;18.97;;;10.60;99.90;;;;;;7300607;19;20191;-80
2023/12/15 08:42:48;;;;;;;40.23;19.57;;;10.60;99.90;;;;;;7282728;19;20228;-81
2023/12/15 08:45:14;;;;;;;41.20;19.50;;;10.60;99.90;;;;;;7285036;19;20776;-81
2023/12/15 08:47:40;;;;;;;34.40;18.27;;;10.70;99.90;;;;;;7287324;19;20205;-80
2023/12/15 08:50:06;;;;;;;39.27;17.57;;;10.70;99.90;;;;;;7288856;19;20207;-80
2023/12/15 08:52:32;;;;;;;37.77;16.77;;;10.70;99.90;;;;;;7288854;19;20188;-81
2023/12/15 08:54:58;;;;;;;36.23;16.73;;;10.70;99.90;;;;;;7289228;19;20737;-80
2023/12/15 08:57:23;;;;;;;33.33;16.13;;;10.70;99.90;;;;;;7310469;19;20189;-81
2023/12/15 08:59:49;;;;;;;32.33;16.07;;;10.70;99.90;;;;;;7290809;19;20199;-81
2023/12/15 09:02:15;;;;;;;35.70;16.33;;;10.80;99.90;;;;;;7288826;19;20188;-81
2023/12/15 09:04:41;;;;;;;38.73;15.57;;;10.90;99.90;;;;;;7290094;19;20315;-80
2023/12/15 09:07:08;;;;;;;38.00;15.83;;;10.90;99.90;;;;;;7289871;19;20192;-80
2023/12/15 09:09:38;;;;;;;33.63;16.40;;;10.90;99.90;;;;;;7284764;19;20203;-80
2023/12/15 09:12:04;;;;;;;32.60;14.63;;;10.80;99.90;;;;;;7288073;19;20652;-81
2023/12/15 09:14:30;;;;;;;31.07;14.23;;;10.80;99.90;;;;;;7288361;19;20203;-81
2023/12/15 09:16:57;;;;;;;34.77;15.10;;;10.90;99.90;;;;;;7300360;19;20770;-80
2023/12/15 09:19:24;;;;;;;34.37;14.97;;;11.10;99.90;;;;;;7309623;19;20192;-81
2023/12/15 09:21:50;;;;;;;29.37;12.83;;;11.20;99.90;;;;;;7286180;19;20240;-81
2023/12/15 09:24:17;;;;;;;28.97;13.53;;;11.40;99.90;;;;;;7284932;19;20276;-81
2023/12/15 09:26:44;;;;;;;34.57;13.83;;;11.40;99.90;;;;;;7288242;19;20197;-81
2023/12/15 09:29:11;;;;;;;32.33;14.17;;;11.30;99.90;;;;;;7287978;19;20188;-81
2023/12/15 09:31:37;;;;;;;30.47;13.13;;;11.40;99.90;;;;;;7289769;19;20681;-80
2023/12/15 09:34:03;;;;;;;32.47;13.53;;;11.50;99.90;;;;;;7288956;19;20186;-80
2023/12/15 09:36:28;;;;;;;27.77;12.60;;;11.60;99.90;;;;;;7287596;19;20203;-81
2023/12/15 09:38:54;;;;;;;27.73;12.00;;;11.70;99.90;;;;;;7310309;19;20192;-81
2023/12/15 09:41:20;;;;;;;33.30;12.93;;;11.70;99.90;;;;;;7289086;19;22099;-81
2023/12/15 09:43:46;;;;;;;32.37;13.17;;;11.80;99.90;;;;;;7288453;19;20223;-81
2023/12/15 09:46:12;;;;;;;32.13;12.23;;;11.70;99.90;;;;;;7289275;19;20181;-81
2023/12/15 09:48:38;;;;;;;32.20;12.53;;;11.70;99.90;;;;;;7288530;19;20188;-81
2023/12/15 09:51:11;;;;;;;28.47;12.37;;;11.80;99.90;;;;;;7286735;19;20256;-81
2023/12/15 09:53:38;;;;;;;26.23;11.67;;;11.80;99.90;;;;;;7287375;19;20188;-81
2023/12/15 09:56:05;;;;;;;30.23;11.70;;;11.90;99.90;;;;;;7287157;19;20181;-81
2023/12/15 09:58:31;;;;;;;27.90;12.07;;;11.90;99.90;;;;;;7287725;19;20276;-81
2023/12/15 10:00:57;;;;;;;31.43;11.70;;;12.10;99.90;;;;;;7296250;19;20189;-81
2023/12/15 10:03:23;;;;;;;27.10;11.20;;;12.20;99.90;;;;;;7307764;19;20189;-81
2023/12/15 10:05:49;;;;;;;27.60;11.23;;;12.30;99.90;;;;;;7288873;19;20212;-81
2023/12/15 10:08:15;;;;;;;29.37;10.30;;;12.50;99.90;;;;;;7285869;19;20260;-81
2023/12/15 10:10:41;;;;;;;27.50;10.57;;;12.40;99.90;;;;;;7288963;19;20181;-81
2023/12/15 10:13:07;;;;;;;29.07;11.23;;;12.50;99.90;;;;;;7287406;19;20189;-81
2023/12/15 10:15:32;;;;;;;24.30;9.33;;;12.60;99.90;;;;;;7287014;19;20866;-80
2023/12/15 10:17:58;;;;;;;26.37;9.77;;;12.70;99.90;;;;;;7287058;19;20269;-80
2023/12/15 10:20:24;;;;;;;22.43;9.43;;;12.60;99.90;;;;;;7310443;19;20675;-81
2023/12/15 10:23:08;;;;;;;24.43;9.73;;;12.60;99.90;;;;;;7285889;19;20577;-81
2023/12/15 10:25:34;;;;;;;24.53;9.77;;;12.70;99.90;;;;;;7185292;19;2004922;-81
2023/12/15 10:28:02;;;;;;;33.77;13.10;;;12.70;99.90;;;;;;7286908;19;20189;-81
2023/12/15 10:30:28;;;;;;;26.67;10.60;;;12.70;99.90;;;;;;7285230;19;20214;-80
2023/12/15 10:32:57;;;;;;;26.63;9.50;;;12.70;99.90;;;;;;7306572;19;20182;-81
2023/12/15 10:35:23;;;;;;;27.20;10.53;;;12.70;99.90;;;;;;7285051;19;20210;-81
2023/12/15 10:37:49;;;;;;;27.73;10.50;;;12.90;99.90;;;;;;7283580;19;20190;-81
2023/12/15 10:40:15;;;;;;;25.20;7.77;;;13.00;99.90;;;;;;7282992;19;20189;-81
2023/12/15 10:42:42;;;;;;;36.63;12.23;;;12.90;99.90;;;;;;7283680;19;20213;-81
2023/12/15 10:45:08;;;;;;;26.17;10.30;;;12.90;99.90;;;;;;7286002;19;20200;-80
2023/12/15 10:47:36;;;;;;;26.23;8.90;;;12.80;99.90;;;;;;7284904;19;20484;-81
2023/12/15 10:50:02;;;;;;;28.10;9.27;;;12.80;99.90;;;;;;7283986;19;20223;-81
2023/12/15 10:52:28;;;;;;;36.60;13.90;;;12.80;99.90;;;;;;7285880;19;20281;-80
2023/12/15 10:54:59;;;;;;;29.23;10.80;;;12.80;99.90;;;;;;7307371;19;20189;-81
2023/12/15 10:57:25;;;;;;;26.57;10.40;;;12.80;99.90;;;;;;7285477;19;20607;-81
2023/12/15 10:59:51;;;;;;;25.33;8.17;;;12.90;99.90;;;;;;7286637;19;20195;-81
2023/12/15 11:02:22;;;;;;;23.37;8.43;;;12.90;99.90;;;;;;7284760;19;20181;-81
2023/12/15 11:04:51;;;;;;;24.03;7.40;;;12.90;99.90;;;;;;7285041;19;20190;-81
2023/12/15 11:07:21;;;;;;;23.50;7.60;;;12.60;99.90;;;;;;7285436;19;20213;-81
2023/12/15 11:09:47;;;;;;;25.10;7.50;;;12.60;99.90;;;;;;7284754;19;20186;-81
2023/12/15 11:12:22;;;;;;;31.97;7.40;;;12.60;99.90;;;;;;7285436;19;20196;-81
2023/12/15 11:15:02;;;;;;;24.67;7.30;;;12.60;99.90;;;;;;7283700;19;20345;-80
2023/12/15 11:17:29;;;;;;;23.33;7.80;;;12.60;99.90;;;;;;7261480;19;20190;-80
2023/12/15 11:20:03;;;;;;;25.73;8.03;;;12.50;99.90;;;;;;7310601;19;20264;-81
2023/12/15 11:22:29;;;;;;;27.90;7.50;;;12.40;99.90;;;;;;7266041;19;20216;-80
2023/12/15 11:24:57;;;;;;;21.27;7.30;;;12.40;99.90;;;;;;7305436;19;20587;-80
2023/12/15 11:27:22;;;;;;;27.20;7.47;;;12.40;99.90;;;;;;7282832;19;20197;-81
2023/12/15 11:29:48;;;;;;;24.43;8.13;;;12.40;99.90;;;;;;7283463;19;20192;-81
2023/12/15 11:32:30;;;;;;;23.70;7.77;;;12.30;99.90;;;;;;7286777;19;20193;-81
2023/12/15 11:34:57;;;;;;;25.80;7.37;;;12.30;99.90;;;;;;7283803;19;20283;-80
2023/12/15 11:37:24;;;;;;;22.73;7.43;;;12.10;99.90;;;;;;7303325;19;20546;-81
2023/12/15 11:39:51;;;;;;;26.57;7.43;;;12.10;99.90;;;;;;7283648;19;20820;-80
2023/12/15 11:42:17;;;;;;;22.93;7.47;;;12.20;99.90;;;;;;7285874;19;20193;-80
2023/12/15 11:44:44;;;;;;;22.53;7.40;;;12.10;99.90;;;;;;7284388;19;20202;-80
2023/12/15 11:47:11;;;;;;;20.40;7.17;;;12.10;99.90;;;;;;7283204;19;20675;-80
2023/12/15 11:49:42;;;;;;;23.43;7.00;;;12.10;99.90;;;;;;7282009;19;20185;-80
2023/12/15 11:52:12;;;;;;;24.93;7.40;;;12.10;99.90;;;;;;7284201;19;20200;-81
2023/12/15 11:54:39;;;;;;;22.30;7.37;;;12.10;99.90;;;;;;7281092;19;20206;-81
2023/12/15 11:57:05;;;;;;;27.23;8.67;;;12.20;99.90;;;;;;7280330;19;20268;-81
2023/12/15 11:59:36;;;;;;;23.90;7.87;;;12.30;99.90;;;;;;7281483;19;20280;-80
2023/12/15 12:02:02;;;;;;;20.90;6.80;;;12.40;99.90;;;;;;7284376;19;20284;-80
2023/12/15 12:04:30;;;;;;;24.43;7.60;;;12.50;99.90;;;;;;7284676;19;20288;-80
2023/12/15 12:06:55;;;;;;;22.10;6.13;;;12.70;99.90;;;;;;7307956;19;20579;-81
2023/12/15 12:09:22;;;;;;;19.10;6.67;;;12.90;99.90;;;;;;7283585;19;20197;-81
2023/12/15 12:11:48;;;;;;;18.70;6.53;;;13.00;99.90;;;;;;7284870;19;20198;-80
2023/12/15 12:14:14;;;;;;;22.90;6.53;;;12.90;99.90;;;;;;7284536;19;20187;-80
2023/12/15 12:16:40;;;;;;;23.00;6.80;;;12.80;99.90;;;;;;7283997;19;20274;-81
2023/12/15 12:19:06;;;;;;;22.73;6.90;;;12.90;99.90;;;;;;7283596;19;20193;-80
2023/12/15 12:21:32;;;;;;;20.50;6.20;;;12.80;99.90;;;;;;7281735;19;20199;-80
2023/12/15 12:23:59;;;;;;;24.90;6.80;;;12.80;99.90;;;;;;7288474;19;20202;-80
2023/12/15 12:26:27;;;;;;;23.63;6.33;;;12.80;99.90;;;;;;7306364;19;20180;-80